Time;durP1;ratioP1;P1;durP2;ratioP2;P2;SDS_P1;SDS_P2;PMS_P1;PMS_P2;Temp;Humidity;BMP_temperature;BMP_pressure;BME280_temperature;BME280_humidity;BME280_pressure;Samples;Min_cycle;Max_cycle;Signal;HPM_P1;HPM_P2
2021/09/20 00:01:04;;;;;;;;;;;;;;;14.82;61.27;101004.95;1658856;86;20288;-77
2021/09/20 00:03:31;;;;;;;;;;;;;;;14.82;60.27;101004.48;1657929;86;20126;-76
2021/09/20 00:05:59;;;;;;;;;;;;;;;14.81;59.38;101017.17;1660337;86;20113;-79
2021/09/20 00:08:27;;;;;;;;;;;;;;;14.78;59.33;101010.89;1662128;85;22098;-81
2021/09/20 00:10:54;;;;;;;;;;;;;;;14.73;59.50;100998.67;1662710;86;20154;-79
2021/09/20 00:13:22;;;;;;;;;;;;;;;14.68;59.44;100995.56;1662175;86;20124;-77
2021/09/20 00:15:48;;;;;;;;;;;;;;;14.61;58.97;100998.32;1661223;86;20180;-77
2021/09/20 00:18:17;;;;;;;;;;;;;;;14.57;58.85;100999.50;1659049;86;20078;-76
2021/09/20 00:20:45;;;;;;;;;;;;;;;14.56;58.94;100993.08;1662293;86;20089;-75
2021/09/20 00:23:11;;;;;;;;;;;;;;;14.56;58.69;100982.63;1659807;86;20155;-78
2021/09/20 00:25:39;;;;;;;;;;;;;;;14.54;58.59;100979.31;1662121;86;20180;-76
2021/09/20 00:28:06;;;;;;;;;;;;;;;14.50;58.04;100986.55;1662180;86;20105;-77
2021/09/20 00:30:37;;;;;;;;;;;;;;;14.45;58.08;100986.56;1661269;86;20126;-77
2021/09/20 00:33:03;;;;;;;;;;;;;;;14.43;58.17;100986.66;1660167;86;21876;-77
2021/09/20 00:35:33;;;;;;;;;;;;;;;14.42;57.92;100992.02;1661765;86;20444;-76
2021/09/20 00:38:02;;;;;;;;;;;;;;;14.38;57.92;101001.86;1662357;86;20113;-77
2021/09/20 00:40:30;;;;;;;;;;;;;;;14.31;57.89;101001.46;1661109;86;20654;-77
2021/09/20 00:42:58;;;;;;;;;;;;;;;14.21;57.77;101004.41;1658805;86;20115;-77
2021/09/20 00:45:24;;;;;;;;;;;;;;;14.13;57.96;101005.95;1660021;85;21152;-76
2021/09/20 00:47:52;;;;;;;;;;;;;;;14.06;58.10;101016.01;1660504;86;20423;-76
2021/09/20 00:50:19;;;;;;;;;;;;;;;13.98;58.29;101016.20;1660983;86;20129;-78
2021/09/20 00:52:47;;;;;;;;;;;;;;;13.84;58.59;101017.25;1657613;86;20085;-79
2021/09/20 00:55:13;;;;;;;;;;;;;;;13.74;58.82;101021.00;1660809;86;20468;-77
2021/09/20 00:57:40;;;;;;;;;;;;;;;13.66;59.12;101014.66;1662428;86;21139;-76
2021/09/20 01:00:08;;;;;;;;;;;;;;;13.59;59.52;101014.77;1662234;86;20110;-78
2021/09/20 01:02:34;;;;;;;;;;;;;;;13.55;59.91;101017.23;1661331;86;20090;-79
2021/09/20 01:05:02;;;;;;;;;;;;;;;13.51;60.06;101021.84;1660160;85;20996;-78
2021/09/20 01:07:29;;;;;;;;;;;;;;;13.50;60.06;101034.97;1661885;86;20097;-77
2021/09/20 01:09:58;;;;;;;;;;;;;;;13.46;60.23;101036.16;1661154;86;21078;-77
2021/09/20 01:12:26;;;;;;;;;;;;;;;13.41;60.41;101033.87;1659847;86;20102;-77
2021/09/20 01:14:56;;;;;;;;;;;;;;;13.37;60.52;101029.81;1662264;86;20094;-77
2021/09/20 01:17:23;;;;;;;;;;;;;;;13.33;60.93;101036.20;1658597;86;20448;-77
2021/09/20 01:19:51;;;;;;;;;;;;;;;13.29;61.03;101032.14;1660855;86;20098;-76
2021/09/20 01:22:20;;;;;;;;;;;;;;;13.26;61.19;101033.67;1660435;85;20148;-77
2021/09/20 01:24:47;;;;;;;;;;;;;;;13.22;61.52;101035.66;1659293;86;20161;-76
2021/09/20 01:27:16;;;;;;;;;;;;;;;13.19;61.68;101033.27;1658451;86;20101;-78
2021/09/20 01:29:42;;;;;;;;;;;;;;;13.19;61.79;101038.48;1659720;85;20105;-78
2021/09/20 01:32:09;;;;;;;;;;;;;;;13.16;61.87;101042.61;1659161;85;20276;-78
2021/09/20 01:34:36;;;;;;;;;;;;;;;13.12;61.99;101034.64;1662044;86;21172;-78
2021/09/20 01:37:04;;;;;;;;;;;;;;;13.10;62.30;101037.00;1658471;86;20440;-77
2021/09/20 01:39:32;;;;;;;;;;;;;;;13.11;62.44;101039.47;1661303;86;20121;-77
2021/09/20 01:41:59;;;;;;;;;;;;;;;13.12;62.32;101037.24;1658394;86;20184;-77
2021/09/20 01:44:26;;;;;;;;;;;;;;;13.12;62.33;101038.55;1660706;86;20114;-77
2021/09/20 01:46:54;;;;;;;;;;;;;;;13.08;62.37;101034.95;1661470;86;21054;-77
2021/09/20 01:49:20;;;;;;;;;;;;;;;13.05;62.62;101029.45;1657049;86;20465;-77
2021/09/20 01:51:47;;;;;;;;;;;;;;;13.07;62.84;101034.58;1659802;86;20189;-77
2021/09/20 01:54:13;;;;;;;;;;;;;;;13.09;62.86;101039.23;1663689;86;20110;-77
2021/09/20 01:56:40;;;;;;;;;;;;;;;13.10;62.88;101043.05;1662462;86;20451;-78
2021/09/20 01:59:06;;;;;;;;;;;;;;;13.12;62.93;101059.39;1658685;86;21163;-76
2021/09/20 02:01:33;;;;;;;;;;;;;;;13.13;62.79;101059.77;1659767;86;20178;-77
2021/09/20 02:03:59;;;;;;;;;;;;;;;13.12;62.77;101057.25;1660622;86;20213;-76
2021/09/20 02:06:26;;;;;;;;;;;;;;;13.09;62.90;101057.47;1663262;86;20146;-77
2021/09/20 02:08:53;;;;;;;;;;;;;;;13.06;62.97;101051.98;1662290;86;20187;-77
2021/09/20 02:11:22;;;;;;;;;;;;;;;13.04;63.01;101056.94;1662348;86;20136;-76
2021/09/20 02:13:50;;;;;;;;;;;;;;;12.98;63.15;101053.46;1660878;86;20161;-79
2021/09/20 02:16:16;;;;;;;;;;;;;;;12.91;63.43;101052.22;1662192;86;20245;-77
2021/09/20 02:18:43;;;;;;;;;;;;;;;12.87;63.77;101049.45;1658096;86;20221;-76
2021/09/20 02:21:13;;;;;;;;;;;;;;;12.83;63.77;101059.25;1659111;86;20124;-76
2021/09/20 02:23:39;;;;;;;;;;;;;;;12.80;64.04;101057.31;1635522;86;21166;-79
2021/09/20 02:26:07;;;;;;;;;;;;;;;12.77;64.27;101062.27;1654557;85;20078;-78
2021/09/20 02:28:37;;;;;;;;;;;;;;;12.78;64.37;101067.86;1660820;86;20162;-76
2021/09/20 02:31:05;;;;;;;;;;;;;;;12.79;64.36;101063.48;1657122;86;20097;-77
2021/09/20 02:33:33;;;;;;;;;;;;;;;12.78;64.50;101057.44;1661589;86;20106;-77
2021/09/20 02:35:59;;;;;;;;;;;;;;;12.77;64.54;101064.04;1662448;86;21152;-78
2021/09/20 02:38:25;;;;;;;;;;;;;;;12.78;64.71;101070.92;1661934;86;20499;-79
2021/09/20 02:40:53;;;;;;;;;;;;;;;12.79;64.73;101068.23;1662209;86;20407;-78
2021/09/20 02:43:20;;;;;;;;;;;;;;;12.82;64.77;101061.51;1660275;85;20169;-78
2021/09/20 02:45:46;;;;;;;;;;;;;;;12.87;64.71;101063.78;1660728;86;20512;-78
2021/09/20 02:48:14;;;;;;;;;;;;;;;12.88;64.79;101063.69;1662061;86;20812;-75
2021/09/20 02:50:40;;;;;;;;;;;;;;;12.90;64.64;101064.86;1660293;86;20094;-78
2021/09/20 02:53:07;;;;;;;;;;;;;;;12.89;64.57;101064.03;1662422;85;20114;-77
2021/09/20 02:55:34;;;;;;;;;;;;;;;12.88;64.60;101067.59;1655430;86;20102;-77
2021/09/20 02:58:02;;;;;;;;;;;;;;;12.84;64.47;101075.71;1662557;86;20215;-76
2021/09/20 03:00:28;;;;;;;;;;;;;;;12.78;64.65;101065.72;1663445;86;21160;-77
2021/09/20 03:02:55;;;;;;;;;;;;;;;12.72;64.66;101065.21;1661814;86;20077;-77
2021/09/20 03:05:21;;;;;;;;;;;;;;;12.68;64.75;101066.34;1661814;86;20130;-76
2021/09/20 03:07:48;;;;;;;;;;;;;;;12.65;64.81;101065.27;1646529;86;20123;-76
2021/09/20 03:10:15;;;;;;;;;;;;;;;12.63;65.09;101072.81;1655374;86;20081;-77
2021/09/20 03:12:43;;;;;;;;;;;;;;;12.60;65.15;101082.95;1659956;86;20114;-77
2021/09/20 03:15:10;;;;;;;;;;;;;;;12.58;65.36;101086.59;1662203;86;20140;-75
2021/09/20 03:17:37;;;;;;;;;;;;;;;12.56;65.36;101077.61;1662247;86;20543;-77
2021/09/20 03:20:06;;;;;;;;;;;;;;;12.51;65.39;101077.52;1659979;86;20131;-78
2021/09/20 03:22:32;;;;;;;;;;;;;;;12.46;65.61;101081.76;1662231;86;20436;-77
2021/09/20 03:25:00;;;;;;;;;;;;;;;12.43;65.95;101077.22;1661619;86;20089;-76
2021/09/20 03:27:27;;;;;;;;;;;;;;;12.44;66.12;101074.99;1659538;86;20424;-78
2021/09/20 03:29:53;;;;;;;;;;;;;;;12.41;66.33;101079.91;1660458;86;20097;-77
2021/09/20 03:32:19;;;;;;;;;;;;;;;12.41;66.58;101079.11;1660075;86;20464;-76
2021/09/20 03:34:46;;;;;;;;;;;;;;;12.41;66.85;101082.52;1659466;85;20169;-78
2021/09/20 03:37:12;;;;;;;;;;;;;;;12.46;66.76;101086.96;1662063;86;21822;-77
2021/09/20 03:39:39;;;;;;;;;;;;;;;12.47;66.67;101093.01;1659271;86;20308;-78
2021/09/20 03:42:05;;;;;;;;;;;;;;;12.48;66.70;101095.95;1665069;86;20090;-78
2021/09/20 03:44:31;;;;;;;;;;;;;;;12.48;66.60;101095.49;1664251;86;20743;-77
2021/09/20 03:46:57;;;;;;;;;;;;;;;12.45;66.55;101094.39;1662286;85;20456;-77
2021/09/20 03:49:25;;;;;;;;;;;;;;;12.46;66.72;101099.14;1660270;86;39093;-76
2021/09/20 03:51:51;;;;;;;;;;;;;;;12.44;66.72;101094.52;1661005;86;20166;-76
2021/09/20 03:54:18;;;;;;;;;;;;;;;12.39;66.92;101092.20;1661185;86;20122;-76
2021/09/20 03:56:44;;;;;;;;;;;;;;;12.39;67.19;101092.67;1659691;86;20437;-77
2021/09/20 03:59:10;;;;;;;;;;;;;;;12.37;67.32;101104.50;1660529;86;20106;-77
2021/09/20 04:01:38;;;;;;;;;;;;;;;12.35;67.52;101102.45;1662196;85;21172;-77
2021/09/20 04:04:04;;;;;;;;;;;;;;;12.31;67.71;101101.00;1659445;86;20838;-76
2021/09/20 04:06:30;;;;;;;;;;;;;;;12.27;67.84;101096.92;1661817;86;20204;-77
2021/09/20 04:09:02;;;;;;;;;;;;;;;12.23;68.01;101098.05;1662816;86;20545;-78
2021/09/20 04:11:29;;;;;;;;;;;;;;;12.20;68.20;101101.70;1662145;86;20484;-76
2021/09/20 04:13:57;;;;;;;;;;;;;;;12.15;68.46;101102.95;1662122;86;21167;-76
2021/09/20 04:16:25;;;;;;;;;;;;;;;12.11;68.62;101102.77;1662267;86;20118;-77
2021/09/20 04:18:51;;;;;;;;;;;;;;;12.08;68.83;101106.88;1662233;85;20149;-77
2021/09/20 04:21:19;;;;;;;;;;;;;;;12.05;68.96;101107.91;1662398;86;20149;-78
2021/09/20 04:23:45;;;;;;;;;;;;;;;12.03;69.17;101110.25;1662357;86;20093;-76
2021/09/20 04:26:12;;;;;;;;;;;;;;;12.02;69.41;101110.72;1660322;86;21161;-77
2021/09/20 04:28:38;;;;;;;;;;;;;;;12.01;69.42;101110.80;1661193;86;20094;-77
2021/09/20 04:31:04;;;;;;;;;;;;;;;12.03;69.52;101111.06;1657354;86;20089;-76
2021/09/20 04:33:30;;;;;;;;;;;;;;;12.04;69.54;101113.20;1659428;85;20121;-77
2021/09/20 04:35:57;;;;;;;;;;;;;;;12.03;69.54;101112.86;1660132;86;20122;-77
2021/09/20 04:38:23;;;;;;;;;;;;;;;12.01;69.66;101105.59;1659096;86;21167;-76
2021/09/20 04:40:51;;;;;;;;;;;;;;;12.03;69.67;101112.86;1661251;86;20736;-77
2021/09/20 04:43:18;;;;;;;;;;;;;;;12.06;69.86;101113.95;1658402;85;20180;-78
2021/09/20 04:45:45;;;;;;;;;;;;;;;12.09;69.76;101116.36;1658289;86;20102;-76
2021/09/20 04:48:11;;;;;;;;;;;;;;;12.12;69.51;101116.96;1654266;86;20138;-76
2021/09/20 04:50:42;;;;;;;;;;;;;;;12.14;69.14;101119.02;1660950;85;21809;-79
2021/09/20 04:53:09;;;;;;;;;;;;;;;12.16;69.06;101115.84;1661441;85;20259;-76
2021/09/20 04:55:36;;;;;;;;;;;;;;;12.20;68.90;101130.33;1661909;86;20523;-77
2021/09/20 04:58:09;;;;;;;;;;;;;;;12.26;68.94;101126.94;1662124;86;20101;-77
2021/09/20 05:00:35;;;;;;;;;;;;;;;12.32;68.65;101126.07;1662388;86;20086;-78
2021/09/20 05:03:02;;;;;;;;;;;;;;;12.35;68.41;101126.36;1657459;86;21092;-76
2021/09/20 05:05:28;;;;;;;;;;;;;;;12.35;67.95;101124.56;1662293;86;20105;-76
2021/09/20 05:07:55;;;;;;;;;;;;;;;12.36;68.01;101127.55;1662142;86;20182;-78
2021/09/20 05:10:23;;;;;;;;;;;;;;;12.37;68.12;101127.08;1660933;86;20102;-78
2021/09/20 05:12:52;;;;;;;;;;;;;;;12.41;68.05;101124.16;1659536;86;20130;-77
2021/09/20 05:15:18;;;;;;;;;;;;;;;12.46;68.07;101125.17;1660252;86;21809;-79
2021/09/20 05:17:46;;;;;;;;;;;;;;;12.52;68.22;101131.27;1661171;86;20354;-77
2021/09/20 05:20:13;;;;;;;;;;;;;;;12.57;67.84;101128.72;1654077;86;20129;-78
2021/09/20 05:22:41;;;;;;;;;;;;;;;12.60;67.57;101127.70;1659908;86;20113;-78
2021/09/20 05:25:09;;;;;;;;;;;;;;;12.65;67.52;101129.52;1657162;86;20154;-78
2021/09/20 05:27:38;;;;;;;;;;;;;;;12.68;67.31;101130.61;1665589;86;22011;-78
2021/09/20 05:30:09;;;;;;;;;;;;;;;12.71;67.23;101133.00;1661204;85;20435;-77
2021/09/20 05:32:40;;;;;;;;;;;;;;;12.75;67.09;101127.97;1661418;86;20189;-77
2021/09/20 05:35:07;;;;;;;;;;;;;;;12.79;67.00;101125.99;1660123;86;20486;-77
2021/09/20 05:37:36;;;;;;;;;;;;;;;12.84;67.08;101134.31;1658926;86;20131;-77
2021/09/20 05:40:05;;;;;;;;;;;;;;;12.90;66.91;101139.10;1659017;84;21088;-77
2021/09/20 05:42:31;;;;;;;;;;;;;;;12.93;66.58;101134.98;1661903;85;20435;-79
2021/09/20 05:44:59;;;;;;;;;;;;;;;13.01;66.42;101132.70;1657302;86;20441;-77
2021/09/20 05:47:26;;;;;;;;;;;;;;;13.07;66.28;101131.81;1659194;86;20132;-78
2021/09/20 05:49:52;;;;;;;;;;;;;;;13.12;66.09;101121.92;1658057;86;20447;-78
2021/09/20 05:52:22;;;;;;;;;;;;;;;13.18;65.40;101119.36;1660885;85;21166;-77
2021/09/20 05:54:48;;;;;;;;;;;;;;;13.24;65.07;101120.27;1661658;86;20456;-77
2021/09/20 05:57:15;;;;;;;;;;;;;;;13.30;64.65;101120.30;1661847;86;20102;-77
2021/09/20 05:59:44;;;;;;;;;;;;;;;13.37;64.42;101128.06;1659993;86;20128;-77
2021/09/20 06:02:11;;;;;;;;;;;;;;;13.44;64.40;101127.50;1660875;86;20435;-78
2021/09/20 06:04:38;;;;;;;;;;;;;;;13.51;64.07;101126.59;1654115;86;21187;-78
2021/09/20 06:07:06;;;;;;;;;;;;;;;13.58;63.73;101119.55;1659970;85;20098;-76
2021/09/20 06:09:35;;;;;;;;;;;;;;;13.66;63.05;101121.13;1660721;86;20106;-77
2021/09/20 06:12:05;;;;;;;;;;;;;;;13.73;62.72;101119.75;1666573;85;20472;-75
2021/09/20 06:14:32;;;;;;;;;;;;;;;13.78;62.47;101118.93;1674351;84;20091;-77
2021/09/20 06:16:59;;;;;;;;;;;;;;;13.87;62.47;101125.75;1672498;84;21162;-77
2021/09/20 06:19:25;;;;;;;;;;;;;;;13.92;62.35;101129.69;1665388;85;20126;-77
2021/09/20 06:21:53;;;;;;;;;;;;;;;14.01;62.44;101133.39;1653731;85;20418;-77
2021/09/20 06:24:20;;;;;;;;;;;;;;;14.09;61.88;101140.21;1650446;85;20601;-79
2021/09/20 06:26:48;;;;;;;;;;;;;;;14.15;61.17;101138.45;1655260;86;20663;-77
2021/09/20 06:29:14;;;;;;;;;;;;;;;14.23;60.64;101153.09;1628535;86;21838;-78
2021/09/20 06:31:41;;;;;;;;;;;;;;;14.28;60.64;101162.25;1651072;87;20141;-77
2021/09/20 06:34:09;;;;;;;;;;;;;;;14.36;60.50;101154.36;1673214;85;20090;-77
2021/09/20 06:36:39;;;;;;;;;;;;;;;14.43;59.79;101159.00;1634013;85;20213;-77
2021/09/20 06:39:08;;;;;;;;;;;;;;;14.49;59.49;101150.70;1585267;86;21199;-77
2021/09/20 06:41:35;;;;;;;;;;;;;;;14.56;59.42;101149.78;1627028;88;21546;-77
2021/09/20 06:44:10;;;;;;;;;;;;;;;14.62;59.24;101149.31;1655906;85;20151;-75
2021/09/20 06:46:37;;;;;;;;;;;;;;;14.69;59.12;101159.20;1661609;85;20659;-77
2021/09/20 06:49:04;;;;;;;;;;;;;;;14.78;58.77;101155.05;1659805;86;20201;-76
2021/09/20 06:51:32;;;;;;;;;;;;;;;14.84;58.63;101154.59;1655802;86;20209;-78
2021/09/20 06:53:59;;;;;;;;;;;;;;;14.92;58.05;101161.86;1660584;86;21278;-76
2021/09/20 06:56:25;;;;;;;;;;;;;;;14.95;57.94;101153.31;1668441;85;20165;-80
2021/09/20 06:58:52;;;;;;;;;;;;;;;15.00;58.21;101156.39;1667341;84;20129;-78
2021/09/20 07:01:20;;;;;;;;;;;;;;;15.05;57.93;101145.59;1653606;86;20161;-79
2021/09/20 07:03:47;;;;;;;;;;;;;;;15.11;57.74;101149.05;1660542;85;20666;-78
2021/09/20 07:06:14;;;;;;;;;;;;;;;15.17;57.82;101155.94;1666363;84;21163;-76
2021/09/20 07:08:40;;;;;;;;;;;;;;;15.23;57.74;101158.55;1661962;84;20161;-77
2021/09/20 07:11:07;;;;;;;;;;;;;;;15.29;57.41;101160.21;1661419;85;20253;-78
2021/09/20 07:13:34;;;;;;;;;;;;;;;15.34;57.58;101155.47;1652979;86;21039;-78
2021/09/20 07:16:00;;;;;;;;;;;;;;;15.42;57.16;101152.71;1656565;86;20220;-77
2021/09/20 07:18:27;;;;;;;;;;;;;;;15.49;56.77;101150.84;1659552;86;21167;-76
2021/09/20 07:20:55;;;;;;;;;;;;;;;15.55;56.56;101150.83;1660902;85;20217;-78
2021/09/20 07:23:22;;;;;;;;;;;;;;;15.61;56.57;101150.34;1658823;86;20168;-78
2021/09/20 07:25:49;;;;;;;;;;;;;;;15.65;56.16;101146.06;1660427;85;20163;-76
2021/09/20 07:28:15;;;;;;;;;;;;;;;15.70;56.23;101149.14;1665514;85;20217;-76
2021/09/20 07:30:42;;;;;;;;;;;;;;;15.77;55.92;101151.63;1663151;85;21165;-77
2021/09/20 07:33:09;;;;;;;;;;;;;;;15.81;55.92;101154.36;1662131;84;20495;-79
2021/09/20 07:35:35;;;;;;;;;;;;;;;15.90;55.70;101151.47;1663173;84;20245;-76
2021/09/20 07:38:02;;;;;;;;;;;;;;;15.98;54.72;101152.17;1664524;85;20169;-77
2021/09/20 07:40:31;;;;;;;;;;;;;;;16.05;54.64;101157.27;1672350;84;20165;-78
2021/09/20 07:42:58;;;;;;;;;;;;;;;16.10;54.48;101145.47;1670320;84;21154;-77
2021/09/20 07:45:25;;;;;;;;;;;;;;;16.15;54.56;101156.86;1644201;85;20228;-79
2021/09/20 07:47:52;;;;;;;;;;;;;;;16.19;54.68;101151.27;1648336;86;20233;-78
2021/09/20 07:50:20;;;;;;;;;;;;;;;16.27;54.73;101161.12;1663861;85;20224;-77
2021/09/20 07:52:46;;;;;;;;;;;;;;;16.38;54.69;101156.66;1676098;85;20164;-76
2021/09/20 07:55:14;;;;;;;;;;;;;;;16.52;53.75;101154.21;1668613;85;21161;-76
2021/09/20 07:57:42;;;;;;;;;;;;;;;16.63;53.51;101158.57;1655117;85;20247;-79
2021/09/20 08:00:09;;;;;;;;;;;;;;;16.70;53.06;101150.08;1624345;87;20211;-77
2021/09/20 08:02:35;;;;;;;;;;;;;;;16.76;53.11;101143.48;1583722;89;20853;-77
2021/09/20 08:05:02;;;;;;;;;;;;;;;16.86;53.17;101151.77;1650820;85;20244;-78
2021/09/20 08:07:29;;;;;;;;;;;;;;;16.98;52.53;101154.30;1644393;86;21083;-77
2021/09/20 08:09:57;;;;;;;;;;;;;;;17.09;51.94;101147.67;1648155;86;20178;-76
2021/09/20 08:12:25;;;;;;;;;;;;;;;17.16;51.50;101151.44;1640626;86;20164;-75
2021/09/20 08:14:51;;;;;;;;;;;;;;;17.24;51.41;101153.73;1642005;86;20216;-76
2021/09/20 08:17:18;;;;;;;;;;;;;;;17.29;51.04;101149.42;1620197;87;20310;-82
2021/09/20 08:19:46;;;;;;;;;;;;;;;17.32;50.65;101141.28;1603699;88;20673;-81
2021/09/20 08:22:13;;;;;;;;;;;;;;;17.29;50.89;101129.75;1604901;89;20226;-80
2021/09/20 08:24:40;;;;;;;;;;;;;;;17.31;51.14;101122.56;1623625;86;20625;-78
2021/09/20 08:27:07;;;;;;;;;;;;;;;17.30;50.96;101117.80;1582124;89;20233;-77
2021/09/20 08:29:35;;;;;;;;;;;;;;;17.33;50.93;101118.00;1604249;89;20247;-76
2021/09/20 08:32:02;;;;;;;;;;;;;;;17.37;51.30;101108.44;1614216;88;21164;-78
2021/09/20 08:34:28;;;;;;;;;;;;;;;17.46;51.58;101106.79;1599372;89;20230;-77
2021/09/20 08:36:55;;;;;;;;;;;;;;;17.58;51.49;101104.94;1617757;88;20185;-77
2021/09/20 08:39:22;;;;;;;;;;;;;;;17.67;51.18;101108.89;1599177;89;20219;-79
2021/09/20 08:41:48;;;;;;;;;;;;;;;17.76;51.19;101098.05;1617655;88;20142;-76
2021/09/20 08:44:15;;;;;;;;;;;;;;;17.85;50.66;101098.53;1619304;87;21114;-78
2021/09/20 08:46:42;;;;;;;;;;;;;;;17.92;50.55;101097.02;1598787;89;20546;-76
2021/09/20 08:49:13;;;;;;;;;;;;;;;17.95;50.12;101087.08;1594566;89;20207;-79
2021/09/20 08:51:43;;;;;;;;;;;;;;;17.98;50.28;101083.34;1634585;87;20212;-79
2021/09/20 08:54:10;;;;;;;;;;;;;;;18.06;50.45;101078.20;1641944;84;20526;-80
2021/09/20 08:56:37;;;;;;;;;;;;;;;18.14;50.54;101070.95;1665594;85;21163;-76
2021/09/20 08:59:03;;;;;;;;;;;;;;;18.23;49.73;101076.20;1642758;85;20212;-79
2021/09/20 09:01:31;;;;;;;;;;;;;;;18.28;49.83;101075.28;1619226;88;20184;-77
2021/09/20 09:04:31;;;;;;;;;;;;;;;18.39;49.50;101076.45;1629130;87;20181;-75
2021/09/20 09:07:09;;;;;;;;;;;;;;;18.46;48.98;101076.23;1660914;86;20424;-76
2021/09/20 09:09:44;;;;;;;;;;;;;;;18.48;48.67;101078.23;1657403;86;21560;-77
2021/09/20 09:12:14;;;;;;;;;;;;;;;18.53;49.09;101079.64;1653745;86;20149;-78
2021/09/20 09:14:53;;;;;;;;;;;;;;;18.66;49.05;101090.20;1654012;85;20278;-79
2021/09/20 09:17:29;;;;;;;;;;;;;;;18.79;48.24;101073.63;1650327;87;20197;-78
2021/09/20 09:19:58;;;;;;;;;;;;;;;18.88;48.47;101073.23;1658318;86;20264;-76
2021/09/20 09:22:39;;;;;;;;;;;;;;;19.02;47.98;101067.48;1649966;86;20165;-77
2021/09/20 09:25:08;;;;;;;;;;;;;;;19.16;47.79;101075.38;1649187;87;20212;-76
2021/09/20 09:27:37;;;;;;;;;;;;;;;19.31;47.93;101087.06;1669055;85;20201;-76
2021/09/20 09:30:13;;;;;;;;;;;;;;;19.45;47.69;101087.45;1648863;87;20197;-76
2021/09/20 09:32:45;;;;;;;;;;;;;;;19.60;47.75;101090.87;1657102;85;20205;-77
2021/09/20 09:35:10;;;;;;;;;;;;;;;19.76;47.30;101093.19;1623889;83;21824;-77
2021/09/20 09:37:38;;;;;;;;;;;;;;;20.13;46.95;101092.22;1619208;86;20248;-76
2021/09/20 09:40:15;;;;;;;;;;;;;;;21.09;45.73;101090.23;1621407;84;20585;-77
2021/09/20 09:42:49;;;;;;;;;;;;;;;22.52;43.37;101084.19;1640512;86;20456;-80
2021/09/20 09:45:25;;;;;;;;;;;;;;;23.75;39.73;101072.44;1638629;86;20201;-76
2021/09/20 09:47:57;;;;;;;;;;;;;;;24.52;38.47;101071.80;1652890;85;21005;-78
2021/09/20 09:50:24;;;;;;;;;;;;;;;25.49;37.15;101060.87;1656438;85;20175;-78
2021/09/20 09:52:59;;;;;;;;;;;;;;;26.70;34.52;101057.48;1657597;85;20344;-76
2021/09/20 09:55:24;;;;;;;;;;;;;;;27.67;32.38;101053.25;1613157;89;20260;-77
2021/09/20 09:57:51;;;;;;;;;;;;;;;28.35;31.23;101061.41;1627534;87;20228;-78
2021/09/20 10:00:22;;;;;;;;;;;;;;;29.16;29.81;101067.16;1615093;88;21179;-80
2021/09/20 10:02:50;;;;;;;;;;;;;;;30.05;28.75;101062.53;1621927;87;20228;-77
2021/09/20 10:05:21;;;;;;;;;;;;;;;30.91;27.30;101069.20;1593062;88;20247;-79
2021/09/20 10:07:51;;;;;;;;;;;;;;;31.27;26.75;101064.34;1595070;90;20208;-78
2021/09/20 10:10:22;;;;;;;;;;;;;;;31.48;25.96;101065.98;1624499;86;20221;-77
2021/09/20 10:12:52;;;;;;;;;;;;;;;31.24;26.05;101052.73;1603127;87;21176;-74
2021/09/20 10:15:22;;;;;;;;;;;;;;;30.99;26.29;101050.14;1606163;86;20192;-77
2021/09/20 10:17:50;;;;;;;;;;;;;;;30.09;26.87;101054.88;1614157;87;20254;-74
2021/09/20 10:20:20;;;;;;;;;;;;;;;28.46;28.32;101047.44;1609645;88;20617;-77
2021/09/20 10:22:48;;;;;;;;;;;;;;;27.49;29.97;101034.36;1624518;86;20524;-78
2021/09/20 10:25:16;;;;;;;;;;;;;;;26.65;31.51;101039.09;1621584;88;21127;-77
2021/09/20 10:27:46;;;;;;;;;;;;;;;26.03;32.32;101043.06;1624538;87;20184;-86
2021/09/20 10:30:33;;;;;;;;;;;;;;;25.51;33.31;101044.72;1623035;86;20338;-76
2021/09/20 10:33:06;;;;;;;;;;;;;;;24.95;34.11;101047.63;1630478;87;20159;-77
2021/09/20 10:35:42;;;;;;;;;;;;;;;24.61;35.01;101048.14;1630683;87;20207;-74
2021/09/20 10:38:26;;;;;;;;;;;;;;;24.36;35.51;101049.41;1590678;88;21236;-77
2021/09/20 10:41:07;;;;;;;;;;;;;;;24.06;36.13;101050.64;1633151;86;20532;-76
2021/09/20 10:43:35;;;;;;;;;;;;;;;23.78;36.58;101054.02;1616598;87;20195;-82
2021/09/20 10:46:03;;;;;;;;;;;;;;;23.10;37.70;101052.91;1620535;88;20492;-76
2021/09/20 10:48:42;;;;;;;;;;;;;;;22.72;38.78;101048.95;1640471;87;20235;-83
2021/09/20 10:51:15;;;;;;;;;;;;;;;22.48;39.51;101047.16;1616811;86;21182;-79
2021/09/20 10:53:43;;;;;;;;;;;;;;;22.36;40.36;101039.25;1621477;88;20135;-81
2021/09/20 10:56:19;;;;;;;;;;;;;;;22.43;40.37;101041.03;1620237;86;20248;-78
2021/09/20 10:58:55;;;;;;;;;;;;;;;22.43;40.65;101040.23;1620987;88;20223;-76
2021/09/20 11:01:30;;;;;;;;;;;;;;;22.45;40.38;101033.78;1626198;88;20212;-79
2021/09/20 11:03:59;;;;;;;;;;;;;;;22.61;40.37;101039.03;1623277;87;21162;-76
2021/09/20 11:06:35;;;;;;;;;;;;;;;22.82;40.11;101032.36;1630205;87;20169;-76
2021/09/20 11:09:11;;;;;;;;;;;;;;;23.09;39.84;101029.27;1656398;85;20097;-80
2021/09/20 11:11:49;;;;;;;;;;;;;;;23.32;39.29;101019.55;1649301;86;20764;-79
2021/09/20 11:14:24;;;;;;;;;;;;;;;23.14;39.53;101010.54;1646140;86;20934;-78
2021/09/20 11:16:54;;;;;;;;;;;;;;;23.40;39.71;101018.69;1657918;85;20126;-76
2021/09/20 11:19:28;;;;;;;;;;;;;;;24.06;38.56;101012.73;1647603;85;20164;-75
2021/09/20 11:22:13;;;;;;;;;;;;;;;24.36;38.28;101009.62;1653806;85;20164;-77
2021/09/20 11:24:42;;;;;;;;;;;;;;;24.80;37.81;101009.60;1673579;85;20924;-75
2021/09/20 11:27:34;;;;;;;;;;;;;;;25.10;37.24;101001.95;1683355;85;20179;-86
2021/09/20 11:30:04;;;;;;;;;;;;;;;25.32;36.77;101004.12;1678956;83;20212;-78
2021/09/20 11:32:31;;;;;;;;;;;;;;;25.29;35.86;100997.36;1660417;86;20178;-76
2021/09/20 11:35:00;;;;;;;;;;;;;;;25.04;36.32;100997.39;1652394;86;20264;-75
2021/09/20 11:37:30;;;;;;;;;;;;;;;24.82;36.31;100991.21;1660485;86;20192;-76
2021/09/20 11:40:09;;;;;;;;;;;;;;;24.52;36.66;100981.58;1660517;86;20145;-77
2021/09/20 11:42:43;;;;;;;;;;;;;;;24.26;37.69;100983.36;1654970;86;20779;-77
2021/09/20 11:45:18;;;;;;;;;;;;;;;24.04;38.17;100991.67;1658916;86;20520;-76
2021/09/20 11:47:48;;;;;;;;;;;;;;;23.91;38.55;100981.36;1660121;85;20160;-76
2021/09/20 11:50:20;;;;;;;;;;;;;;;23.77;39.00;100972.89;1660742;86;20187;-76
2021/09/20 11:52:56;;;;;;;;;;;;;;;23.58;39.73;100970.23;1660748;86;20476;-75
2021/09/20 11:55:25;;;;;;;;;;;;;;;23.48;40.08;100972.30;1663713;85;21221;-75
2021/09/20 11:57:56;;;;;;;;;;;;;;;23.44;40.05;100971.82;1667767;85;20231;-81
2021/09/20 12:00:33;;;;;;;;;;;;;;;23.37;40.26;100971.34;1660270;86;20208;-75
2021/09/20 12:03:01;;;;;;;;;;;;;;;23.13;40.60;100963.08;1657734;86;20204;-81
2021/09/20 12:05:34;;;;;;;;;;;;;;;23.05;40.89;100960.45;1665397;85;20165;-74
2021/09/20 12:08:07;;;;;;;;;;;;;;;22.97;40.99;100956.05;1653896;85;21144;-75
2021/09/20 12:10:44;;;;;;;;;;;;;;;22.87;41.26;100951.97;1669583;84;20188;-75
2021/09/20 12:13:15;;;;;;;;;;;;;;;22.74;41.52;100949.88;1685717;84;20154;-75
2021/09/20 12:15:46;;;;;;;;;;;;;;;22.65;41.81;100946.92;1643638;86;20160;-77
2021/09/20 12:18:14;;;;;;;;;;;;;;;22.53;42.20;100942.98;1627675;86;20533;-76
2021/09/20 12:20:48;;;;;;;;;;;;;;;22.39;42.39;100944.55;1649138;84;20205;-76
2021/09/20 12:23:27;;;;;;;;;;;;;;;22.31;42.68;100944.55;1679619;85;20128;-75
2021/09/20 12:26:01;;;;;;;;;;;;;;;22.25;43.01;100941.27;1648850;85;20535;-74
2021/09/20 12:28:32;;;;;;;;;;;;;;;22.17;43.52;100936.52;1661055;85;20607;-76
2021/09/20 12:31:12;;;;;;;;;;;;;;;22.10;44.07;100933.72;1659330;84;20660;-76
2021/09/20 12:33:54;;;;;;;;;;;;;;;22.00;44.10;100940.52;1659723;85;22256;-77
2021/09/20 12:36:23;;;;;;;;;;;;;;;21.92;44.38;100934.42;1650866;86;20149;-75
2021/09/20 12:39:11;;;;;;;;;;;;;;;21.82;44.54;100929.29;1622748;87;20213;-75
2021/09/20 12:41:43;;;;;;;;;;;;;;;21.75;44.90;100922.19;1650217;86;20145;-75
2021/09/20 12:44:14;;;;;;;;;;;;;;;21.68;45.04;100922.52;1647489;85;20271;-75